Terminal Aerodrome Forecast
Issued by NWS

Home | Current Version | Previous Version | Text Only | Print | Product List | Glossary Off
Versions: 1 2 3 4 5 6 7 8 9 10 11 12 13 14 15 16

000
FTUS43 KBIS 280500
TAFDIK
TAF
KDIK 280539Z 2806/2906 VRB05KT P6SM FEW150
     FM281200 32013KT P6SM OVC100
     FM281700 32021G30KT P6SM BKN008=

USA.gov is the U.S. government's official web portal to all federal, state and local government web resources and services.